sensor_id;sensor_type;location;lat;lon;timestamp;pressure;altitude;pressure_sealevel;temperature;humidity
54022;BME280;39936;51.058;17.220;2023-05-17T00:02:38;101716.08;;;9.26;100.00
54022;BME280;39936;51.058;17.220;2023-05-17T00:06:04;101713.05;;;9.26;100.00
54022;BME280;39936;51.058;17.220;2023-05-17T00:09:29;101703.66;;;9.13;100.00
54022;BME280;39936;51.058;17.220;2023-05-17T00:13:25;101725.55;;;9.23;100.00
54022;BME280;39936;51.058;17.220;2023-05-17T00:16:49;101722.43;;;9.23;100.00
54022;BME280;39936;51.058;17.220;2023-05-17T00:20:13;101706.44;;;9.11;100.00
54022;BME280;39936;51.058;17.220;2023-05-17T00:24:46;101720.26;;;9.22;100.00
54022;BME280;39936;51.058;17.220;2023-05-17T00:28:35;101715.84;;;9.22;100.00
54022;BME280;39936;51.058;17.220;2023-05-17T00:32:17;101707.70;;;9.18;100.00
54022;BME280;39936;51.058;17.220;2023-05-17T00:36:00;101708.37;;;9.16;100.00
54022;BME280;39936;51.058;17.220;2023-05-17T00:39:44;101715.14;;;9.16;100.00
54022;BME280;39936;51.058;17.220;2023-05-17T00:43:27;101721.63;;;9.15;100.00
54022;BME280;39936;51.058;17.220;2023-05-17T00:47:00;101719.75;;;9.14;100.00
54022;BME280;39936;51.058;17.220;2023-05-17T00:50:24;101722.05;;;9.12;100.00
54022;BME280;39936;51.058;17.220;2023-05-17T00:54:09;101721.41;;;9.10;100.00
54022;BME280;39936;51.058;17.220;2023-05-17T01:02:31;101714.55;;;9.02;100.00
54022;BME280;39936;51.058;17.220;2023-05-17T01:06:49;101717.13;;;9.03;100.00
54022;BME280;39936;51.058;17.220;2023-05-17T01:11:17;101712.25;;;8.98;100.00
54022;BME280;39936;51.058;17.220;2023-05-17T01:27:31;101725.69;;;8.97;100.00
54022;BME280;39936;51.058;17.220;2023-05-17T01:31:19;101723.88;;;8.95;100.00
54022;BME280;39936;51.058;17.220;2023-05-17T01:35:26;101719.38;;;8.93;100.00
54022;BME280;39936;51.058;17.220;2023-05-17T01:39:22;101738.88;;;8.96;100.00
54022;BME280;39936;51.058;17.220;2023-05-17T01:42:56;101745.15;;;8.94;100.00
54022;BME280;39936;51.058;17.220;2023-05-17T01:51:19;101730.90;;;8.95;100.00
54022;BME280;39936;51.058;17.220;2023-05-17T01:59:11;101729.59;;;8.89;100.00
54022;BME280;39936;51.058;17.220;2023-05-17T02:02:59;101741.66;;;8.87;100.00
54022;BME280;39936;51.058;17.220;2023-05-17T02:06:23;101745.89;;;8.87;100.00
54022;BME280;39936;51.058;17.220;2023-05-17T02:10:02;101748.45;;;8.86;100.00
54022;BME280;39936;51.058;17.220;2023-05-17T02:17:53;101748.00;;;8.84;100.00
54022;BME280;39936;51.058;17.220;2023-05-17T02:21:19;101744.88;;;8.83;100.00
54022;BME280;39936;51.058;17.220;2023-05-17T02:24:58;101741.48;;;8.83;100.00
54022;BME280;39936;51.058;17.220;2023-05-17T02:29:08;101738.58;;;8.77;100.00
54022;BME280;39936;51.058;17.220;2023-05-17T02:33:25;101745.16;;;8.77;100.00
54022;BME280;39936;51.058;17.220;2023-05-17T02:37:09;101746.35;;;8.74;100.00
54022;BME280;39936;51.058;17.220;2023-05-17T02:40:50;101751.25;;;8.70;100.00
54022;BME280;39936;51.058;17.220;2023-05-17T02:44:57;101751.21;;;8.67;100.00
54022;BME280;39936;51.058;17.220;2023-05-17T02:49:03;101749.30;;;8.62;100.00
54022;BME280;39936;51.058;17.220;2023-05-17T02:52:27;101756.04;;;8.63;100.00
54022;BME280;39936;51.058;17.220;2023-05-17T02:56:11;101760.16;;;8.62;100.00
54022;BME280;39936;51.058;17.220;2023-05-17T03:00:13;101761.13;;;8.59;100.00
54022;BME280;39936;51.058;17.220;2023-05-17T03:08:03;101768.16;;;8.55;100.00
54022;BME280;39936;51.058;17.220;2023-05-17T03:11:42;101772.06;;;8.51;100.00
54022;BME280;39936;51.058;17.220;2023-05-17T03:16:05;101783.63;;;8.45;100.00
54022;BME280;39936;51.058;17.220;2023-05-17T03:19:57;101785.13;;;8.42;100.00
54022;BME280;39936;51.058;17.220;2023-05-17T03:31:58;101800.59;;;8.36;100.00
54022;BME280;39936;51.058;17.220;2023-05-17T03:36:04;101802.50;;;8.27;100.00
54022;BME280;39936;51.058;17.220;2023-05-17T03:47:38;101823.16;;;8.16;100.00
54022;BME280;39936;51.058;17.220;2023-05-17T03:51:24;101825.52;;;8.12;100.00
54022;BME280;39936;51.058;17.220;2023-05-17T04:06:47;101832.51;;;8.03;100.00
54022;BME280;39936;51.058;17.220;2023-05-17T04:10:42;101833.08;;;8.01;100.00
54022;BME280;39936;51.058;17.220;2023-05-17T04:14:18;101841.07;;;8.01;100.00
54022;BME280;39936;51.058;17.220;2023-05-17T04:18:26;101843.40;;;8.00;100.00
54022;BME280;39936;51.058;17.220;2023-05-17T04:21:48;101841.09;;;7.96;100.00
54022;BME280;39936;51.058;17.220;2023-05-17T04:25:25;101846.91;;;7.91;100.00
54022;BME280;39936;51.058;17.220;2023-05-17T04:29:01;101860.66;;;7.93;100.00
54022;BME280;39936;51.058;17.220;2023-05-17T04:32:30;101860.15;;;7.85;100.00
54022;BME280;39936;51.058;17.220;2023-05-17T04:40:26;101869.34;;;7.89;100.00
54022;BME280;39936;51.058;17.220;2023-05-17T04:43:52;101873.52;;;7.90;100.00
54022;BME280;39936;51.058;17.220;2023-05-17T04:47:16;101881.63;;;7.90;100.00
54022;BME280;39936;51.058;17.220;2023-05-17T04:51:02;101882.50;;;7.89;100.00
54022;BME280;39936;51.058;17.220;2023-05-17T04:55:00;101881.95;;;7.90;100.00
54022;BME280;39936;51.058;17.220;2023-05-17T04:58:52;101878.35;;;7.89;100.00
54022;BME280;39936;51.058;17.220;2023-05-17T05:02:18;101878.38;;;7.89;100.00
54022;BME280;39936;51.058;17.220;2023-05-17T05:06:26;101878.98;;;7.85;100.00
54022;BME280;39936;51.058;17.220;2023-05-17T05:09:41;101878.27;;;7.85;100.00
54022;BME280;39936;51.058;17.220;2023-05-17T05:13:53;101880.08;;;7.88;100.00
54022;BME280;39936;51.058;17.220;2023-05-17T05:17:37;101884.54;;;7.82;100.00
54022;BME280;39936;51.058;17.220;2023-05-17T05:21:26;101892.09;;;7.84;100.00
54022;BME280;39936;51.058;17.220;2023-05-17T05:24:54;101901.13;;;7.87;100.00
54022;BME280;39936;51.058;17.220;2023-05-17T05:28:19;101901.79;;;7.91;100.00
54022;BME280;39936;51.058;17.220;2023-05-17T05:35:52;101911.23;;;8.00;100.00
54022;BME280;39936;51.058;17.220;2023-05-17T05:39:11;101911.85;;;7.95;100.00
54022;BME280;39936;51.058;17.220;2023-05-17T05:43:05;101918.55;;;7.92;100.00
54022;BME280;39936;51.058;17.220;2023-05-17T05:46:29;101926.66;;;8.03;100.00
54022;BME280;39936;51.058;17.220;2023-05-17T05:50:14;101925.72;;;8.08;100.00
54022;BME280;39936;51.058;17.220;2023-05-17T05:53:57;101929.92;;;8.11;100.00
54022;BME280;39936;51.058;17.220;2023-05-17T05:57:33;101932.63;;;8.19;100.00
54022;BME280;39936;51.058;17.220;2023-05-17T06:00:53;101938.05;;;8.22;100.00
54022;BME280;39936;51.058;17.220;2023-05-17T06:04:52;101947.40;;;8.23;100.00
54022;BME280;39936;51.058;17.220;2023-05-17T06:08:42;101949.10;;;8.27;100.00
54022;BME280;39936;51.058;17.220;2023-05-17T06:12:39;101953.13;;;8.34;100.00
54022;BME280;39936;51.058;17.220;2023-05-17T06:16:03;101950.53;;;8.29;99.76
54022;BME280;39936;51.058;17.220;2023-05-17T06:20:14;101963.40;;;8.31;98.66
54022;BME280;39936;51.058;17.220;2023-05-17T06:23:33;101960.32;;;8.33;98.80
54022;BME280;39936;51.058;17.220;2023-05-17T06:26:59;101962.37;;;8.44;99.97
54022;BME280;39936;51.058;17.220;2023-05-17T06:30:43;101956.44;;;8.44;97.63
54022;BME280;39936;51.058;17.220;2023-05-17T06:34:34;101958.63;;;8.54;98.25
54022;BME280;39936;51.058;17.220;2023-05-17T06:38:29;101965.90;;;8.49;94.69
54022;BME280;39936;51.058;17.220;2023-05-17T06:42:51;101978.79;;;8.51;95.79
54022;BME280;39936;51.058;17.220;2023-05-17T06:46:10;101986.36;;;8.54;95.06
54022;BME280;39936;51.058;17.220;2023-05-17T06:50:39;102001.34;;;8.56;94.26
54022;BME280;39936;51.058;17.220;2023-05-17T06:53:59;102003.85;;;8.44;93.19
54022;BME280;39936;51.058;17.220;2023-05-17T06:57:23;101988.95;;;8.30;94.81
54022;BME280;39936;51.058;17.220;2023-05-17T07:00:49;102016.48;;;8.45;95.50
54022;BME280;39936;51.058;17.220;2023-05-17T07:04:29;102000.45;;;8.39;96.99
54022;BME280;39936;51.058;17.220;2023-05-17T07:08:04;102022.12;;;8.56;96.58
54022;BME280;39936;51.058;17.220;2023-05-17T07:11:28;102022.03;;;8.54;95.47
54022;BME280;39936;51.058;17.220;2023-05-17T07:14:49;102037.69;;;8.52;94.83
54022;BME280;39936;51.058;17.220;2023-05-17T07:18:12;102040.55;;;8.52;94.25
54022;BME280;39936;51.058;17.220;2023-05-17T07:22:19;102047.26;;;8.61;96.06
54022;BME280;39936;51.058;17.220;2023-05-17T07:25:43;102038.55;;;8.75;97.13
54022;BME280;39936;51.058;17.220;2023-05-17T07:29:36;102038.05;;;8.83;95.56
54022;BME280;39936;51.058;17.220;2023-05-17T07:33:02;102040.10;;;8.83;94.26
54022;BME280;39936;51.058;17.220;2023-05-17T07:36:43;102038.70;;;8.81;95.21
54022;BME280;39936;51.058;17.220;2023-05-17T07:40:06;102039.08;;;8.81;94.90
54022;BME280;39936;51.058;17.220;2023-05-17T07:43:49;102035.88;;;8.88;94.86
54022;BME280;39936;51.058;17.220;2023-05-17T07:47:32;102043.64;;;8.97;95.92
54022;BME280;39936;51.058;17.220;2023-05-17T07:50:50;102050.88;;;8.99;93.65
54022;BME280;39936;51.058;17.220;2023-05-17T07:54:07;102060.58;;;8.99;93.10
54022;BME280;39936;51.058;17.220;2023-05-17T07:58:21;102059.34;;;8.97;92.90
54022;BME280;39936;51.058;17.220;2023-05-17T08:02:08;102060.17;;;8.97;92.54
54022;BME280;39936;51.058;17.220;2023-05-17T08:05:51;102052.85;;;9.05;95.06
54022;BME280;39936;51.058;17.220;2023-05-17T08:09:39;102031.44;;;9.06;96.37
54022;BME280;39936;51.058;17.220;2023-05-17T08:13:05;102015.71;;;9.02;94.11
54022;BME280;39936;51.058;17.220;2023-05-17T08:16:33;102052.23;;;9.23;95.30
54022;BME280;39936;51.058;17.220;2023-05-17T08:20:22;102053.66;;;9.23;91.96
54022;BME280;39936;51.058;17.220;2023-05-17T08:23:45;102025.10;;;9.08;92.56
54022;BME280;39936;51.058;17.220;2023-05-17T08:27:33;102046.56;;;9.19;91.22
54022;BME280;39936;51.058;17.220;2023-05-17T08:30:57;102015.98;;;9.00;91.28
54022;BME280;39936;51.058;17.220;2023-05-17T08:38:43;102048.38;;;9.31;89.19
54022;BME280;39936;51.058;17.220;2023-05-17T08:42:09;102040.66;;;9.29;91.97
54022;BME280;39936;51.058;17.220;2023-05-17T08:45:26;102044.09;;;9.38;91.26
54022;BME280;39936;51.058;17.220;2023-05-17T08:48:52;102046.88;;;9.41;90.59
54022;BME280;39936;51.058;17.220;2023-05-17T08:53:28;102052.17;;;9.45;89.17
54022;BME280;39936;51.058;17.220;2023-05-17T08:57:28;102049.03;;;9.41;86.30
54022;BME280;39936;51.058;17.220;2023-05-17T09:00:49;102052.67;;;9.49;88.52
54022;BME280;39936;51.058;17.220;2023-05-17T09:05:09;102057.02;;;9.54;85.30
54022;BME280;39936;51.058;17.220;2023-05-17T09:08:54;102044.87;;;9.67;87.50
54022;BME280;39936;51.058;17.220;2023-05-17T09:12:24;102046.94;;;9.75;87.12
54022;BME280;39936;51.058;17.220;2023-05-17T09:16:23;102044.27;;;9.79;88.78
54022;BME280;39936;51.058;17.220;2023-05-17T09:19:48;102044.50;;;9.97;88.16
54022;BME280;39936;51.058;17.220;2023-05-17T09:23:55;102050.66;;;10.02;87.10
54022;BME280;39936;51.058;17.220;2023-05-17T09:27:18;102045.55;;;10.05;87.32
54022;BME280;39936;51.058;17.220;2023-05-17T09:30:51;102047.88;;;10.09;88.78
54022;BME280;39936;51.058;17.220;2023-05-17T09:34:18;102008.87;;;9.93;87.76
54022;BME280;39936;51.058;17.220;2023-05-17T09:37:38;102033.67;;;10.00;87.05
54022;BME280;39936;51.058;17.220;2023-05-17T09:41:06;102043.48;;;10.02;88.07
54022;BME280;39936;51.058;17.220;2023-05-17T09:48:56;102040.44;;;10.19;90.02
54022;BME280;39936;51.058;17.220;2023-05-17T09:52:20;102048.73;;;10.28;91.05
54022;BME280;39936;51.058;17.220;2023-05-17T09:56:16;102050.91;;;10.23;87.51
54022;BME280;39936;51.058;17.220;2023-05-17T10:00:09;102048.21;;;10.16;88.97
54022;BME280;39936;51.058;17.220;2023-05-17T10:03:35;102058.84;;;10.17;86.47
54022;BME280;39936;51.058;17.220;2023-05-17T10:06:58;102063.57;;;10.06;86.48
54022;BME280;39936;51.058;17.220;2023-05-17T10:10:48;102059.48;;;10.08;87.71
54022;BME280;39936;51.058;17.220;2023-05-17T10:14:36;102061.63;;;10.07;86.62
54022;BME280;39936;51.058;17.220;2023-05-17T10:21:56;102048.35;;;10.03;88.63
54022;BME280;39936;51.058;17.220;2023-05-17T10:25:21;102068.55;;;10.22;87.87
54022;BME280;39936;51.058;17.220;2023-05-17T10:28:44;102076.08;;;10.16;86.05
54022;BME280;39936;51.058;17.220;2023-05-17T10:32:09;102048.62;;;10.02;87.80
54022;BME280;39936;51.058;17.220;2023-05-17T10:35:56;102079.95;;;10.25;87.78
54022;BME280;39936;51.058;17.220;2023-05-17T10:39:40;102079.37;;;10.25;85.54
54022;BME280;39936;51.058;17.220;2023-05-17T10:43:11;102075.91;;;10.18;85.63
54022;BME280;39936;51.058;17.220;2023-05-17T10:47:06;102070.58;;;10.11;85.57
54022;BME280;39936;51.058;17.220;2023-05-17T10:50:29;102085.58;;;10.17;86.81
54022;BME280;39936;51.058;17.220;2023-05-17T10:54:33;102086.27;;;10.21;86.05
54022;BME280;39936;51.058;17.220;2023-05-17T10:58:16;102061.14;;;10.15;85.37
54022;BME280;39936;51.058;17.220;2023-05-17T11:09:21;102087.41;;;10.46;84.46
54022;BME280;39936;51.058;17.220;2023-05-17T11:12:45;102088.67;;;10.46;82.68
54022;BME280;39936;51.058;17.220;2023-05-17T11:16:15;102079.54;;;10.46;83.90
54022;BME280;39936;51.058;17.220;2023-05-17T11:19:53;102081.04;;;10.52;84.66
54022;BME280;39936;51.058;17.220;2023-05-17T11:24:06;102085.66;;;10.58;82.58
54022;BME280;39936;51.058;17.220;2023-05-17T11:27:47;102079.80;;;10.60;83.45
54022;BME280;39936;51.058;17.220;2023-05-17T11:31:07;102068.91;;;10.54;79.46
54022;BME280;39936;51.058;17.220;2023-05-17T11:34:59;102082.56;;;10.65;78.23
54022;BME280;39936;51.058;17.220;2023-05-17T11:38:41;102075.97;;;10.68;78.02
54022;BME280;39936;51.058;17.220;2023-05-17T11:42:40;102050.80;;;10.55;76.29
54022;BME280;39936;51.058;17.220;2023-05-17T11:46:20;102064.80;;;10.57;74.65
54022;BME280;39936;51.058;17.220;2023-05-17T11:50:09;102075.29;;;10.61;76.54
54022;BME280;39936;51.058;17.220;2023-05-17T11:54:21;102082.89;;;10.67;76.42
54022;BME280;39936;51.058;17.220;2023-05-17T11:57:46;102077.83;;;10.71;74.80
54022;BME280;39936;51.058;17.220;2023-05-17T12:01:14;102073.80;;;10.75;77.67
54022;BME280;39936;51.058;17.220;2023-05-17T12:05:21;102074.18;;;10.76;76.34
54022;BME280;39936;51.058;17.220;2023-05-17T12:09:17;102075.78;;;10.78;75.17
54022;BME280;39936;51.058;17.220;2023-05-17T12:12:43;102070.01;;;10.78;76.46
54022;BME280;39936;51.058;17.220;2023-05-17T12:16:05;102070.55;;;10.79;76.17
54022;BME280;39936;51.058;17.220;2023-05-17T12:19:33;102074.10;;;10.82;75.84
54022;BME280;39936;51.058;17.220;2023-05-17T12:23:06;102085.51;;;10.85;77.81
54022;BME280;39936;51.058;17.220;2023-05-17T12:26:43;102086.69;;;10.91;79.94
54022;BME280;39936;51.058;17.220;2023-05-17T12:30:14;102058.45;;;10.63;77.79
54022;BME280;39936;51.058;17.220;2023-05-17T12:33:40;102091.48;;;10.84;78.76
54022;BME280;39936;51.058;17.220;2023-05-17T12:41:31;102092.36;;;10.97;80.28
54022;BME280;39936;51.058;17.220;2023-05-17T12:44:54;102093.95;;;10.98;79.66
54022;BME280;39936;51.058;17.220;2023-05-17T12:48:39;102097.14;;;11.00;78.73
54022;BME280;39936;51.058;17.220;2023-05-17T12:56:16;102099.25;;;10.92;77.21
54022;BME280;39936;51.058;17.220;2023-05-17T12:59:47;102081.87;;;10.77;78.71
54022;BME280;39936;51.058;17.220;2023-05-17T13:03:50;102105.76;;;10.94;79.90
54022;BME280;39936;51.058;17.220;2023-05-17T13:07:34;102108.88;;;11.00;79.53
54022;BME280;39936;51.058;17.220;2023-05-17T13:11:54;102109.51;;;10.98;79.81
54022;BME280;39936;51.058;17.220;2023-05-17T13:19:19;102117.35;;;10.86;80.61
54022;BME280;39936;51.058;17.220;2023-05-17T13:22:54;102123.87;;;10.81;80.76
54022;BME280;39936;51.058;17.220;2023-05-17T13:26:26;102128.59;;;10.77;80.90
54022;BME280;39936;51.058;17.220;2023-05-17T13:29:43;102127.73;;;10.78;82.81
54022;BME280;39936;51.058;17.220;2023-05-17T13:33:31;102127.55;;;10.82;81.82
54022;BME280;39936;51.058;17.220;2023-05-17T13:37:18;102134.55;;;10.86;80.95
54022;BME280;39936;51.058;17.220;2023-05-17T13:40:38;102139.16;;;10.89;81.11
54022;BME280;39936;51.058;17.220;2023-05-17T13:44:24;102129.46;;;10.91;81.59
54022;BME280;39936;51.058;17.220;2023-05-17T13:47:48;102143.54;;;11.01;80.62
54022;BME280;39936;51.058;17.220;2023-05-17T13:51:13;102157.04;;;11.05;81.20
54022;BME280;39936;51.058;17.220;2023-05-17T13:55:40;102167.27;;;11.06;77.96
54022;BME280;39936;51.058;17.220;2023-05-17T13:59:32;102160.98;;;10.97;77.24
54022;BME280;39936;51.058;17.220;2023-05-17T14:03:39;102167.17;;;10.99;77.58
54022;BME280;39936;51.058;17.220;2023-05-17T14:07:15;102178.71;;;10.93;77.94
54022;BME280;39936;51.058;17.220;2023-05-17T14:14:51;102168.13;;;10.92;76.45
54022;BME280;39936;51.058;17.220;2023-05-17T14:18:13;102185.09;;;10.95;77.10
54022;BME280;39936;51.058;17.220;2023-05-17T14:21:57;102181.09;;;11.01;79.34
54022;BME280;39936;51.058;17.220;2023-05-17T14:25:53;102186.28;;;11.09;78.56
54022;BME280;39936;51.058;17.220;2023-05-17T14:29:21;102189.27;;;11.15;78.06
54022;BME280;39936;51.058;17.220;2023-05-17T14:33:17;102192.80;;;11.17;76.36
54022;BME280;39936;51.058;17.220;2023-05-17T14:41:04;102174.15;;;11.02;76.71
54022;BME280;39936;51.058;17.220;2023-05-17T14:44:21;102167.38;;;11.04;76.44
54022;BME280;39936;51.058;17.220;2023-05-17T14:48:21;102185.85;;;11.11;75.38
54022;BME280;39936;51.058;17.220;2023-05-17T14:51:46;102196.59;;;11.27;76.04
54022;BME280;39936;51.058;17.220;2023-05-17T14:55:43;102189.48;;;11.29;76.78
54022;BME280;39936;51.058;17.220;2023-05-17T14:59:32;102190.74;;;11.34;77.07
54022;BME280;39936;51.058;17.220;2023-05-17T15:03:34;102197.15;;;11.27;76.15
54022;BME280;39936;51.058;17.220;2023-05-17T15:07:12;102161.14;;;11.07;75.17
54022;BME280;39936;51.058;17.220;2023-05-17T15:10:38;102200.84;;;11.30;76.25
54022;BME280;39936;51.058;17.220;2023-05-17T15:14:22;102204.02;;;11.33;75.70
54022;BME280;39936;51.058;17.220;2023-05-17T15:18:03;102189.27;;;11.32;73.87
54022;BME280;39936;51.058;17.220;2023-05-17T15:21:59;102215.81;;;11.52;74.23
54022;BME280;39936;51.058;17.220;2023-05-17T15:25:43;102220.18;;;11.59;74.49
54022;BME280;39936;51.058;17.220;2023-05-17T15:29:28;102202.29;;;11.39;73.12
54022;BME280;39936;51.058;17.220;2023-05-17T15:33:46;102223.09;;;11.46;71.39
54022;BME280;39936;51.058;17.220;2023-05-17T15:37:02;102223.40;;;11.48;71.70
54022;BME280;39936;51.058;17.220;2023-05-17T15:40:39;102221.49;;;11.45;73.35
54022;BME280;39936;51.058;17.220;2023-05-17T15:43:55;102221.69;;;11.44;74.15
54022;BME280;39936;51.058;17.220;2023-05-17T15:47:12;102224.91;;;11.41;73.56
54022;BME280;39936;51.058;17.220;2023-05-17T15:51:22;102233.75;;;11.33;72.35
54022;BME280;39936;51.058;17.220;2023-05-17T15:54:39;102228.26;;;11.30;72.99
54022;BME280;39936;51.058;17.220;2023-05-17T15:58:49;102230.85;;;11.29;73.58
54022;BME280;39936;51.058;17.220;2023-05-17T16:02:34;102218.91;;;11.09;71.26
54022;BME280;39936;51.058;17.220;2023-05-17T16:06:22;102237.63;;;11.20;73.35
54022;BME280;39936;51.058;17.220;2023-05-17T16:09:51;102240.98;;;11.11;73.06
54022;BME280;39936;51.058;17.220;2023-05-17T16:13:25;102243.28;;;11.10;73.68
54022;BME280;39936;51.058;17.220;2023-05-17T16:16:44;102247.45;;;11.11;75.18
54022;BME280;39936;51.058;17.220;2023-05-17T16:20:00;102223.72;;;10.91;75.85
54022;BME280;39936;51.058;17.220;2023-05-17T16:23:14;102257.33;;;11.08;75.98
54022;BME280;39936;51.058;17.220;2023-05-17T16:27:03;102262.35;;;11.05;75.64
54022;BME280;39936;51.058;17.220;2023-05-17T16:30:40;102258.11;;;11.00;76.42
54022;BME280;39936;51.058;17.220;2023-05-17T16:34:37;102273.14;;;11.04;76.40
54022;BME280;39936;51.058;17.220;2023-05-17T16:37:50;102277.00;;;10.98;76.98
54022;BME280;39936;51.058;17.220;2023-05-17T16:42:11;102279.20;;;11.01;76.80
54022;BME280;39936;51.058;17.220;2023-05-17T16:45:57;102277.82;;;11.01;76.09
54022;BME280;39936;51.058;17.220;2023-05-17T16:49:15;102281.27;;;11.04;76.55
54022;BME280;39936;51.058;17.220;2023-05-17T16:53:14;102278.82;;;10.98;74.79
54022;BME280;39936;51.058;17.220;2023-05-17T16:56:47;102283.10;;;10.99;75.73
54022;BME280;39936;51.058;17.220;2023-05-17T17:00:35;102285.89;;;10.98;74.82
54022;BME280;39936;51.058;17.220;2023-05-17T17:04:19;102288.28;;;10.99;74.45
54022;BME280;39936;51.058;17.220;2023-05-17T17:07:56;102273.45;;;10.86;73.81
54022;BME280;39936;51.058;17.220;2023-05-17T17:11:59;102284.05;;;10.91;74.70
54022;BME280;39936;51.058;17.220;2023-05-17T17:15:36;102242.73;;;10.66;75.44
54022;BME280;39936;51.058;17.220;2023-05-17T17:19:11;102272.98;;;10.81;75.07
54022;BME280;39936;51.058;17.220;2023-05-17T17:23:14;102274.13;;;10.82;75.65
54022;BME280;39936;51.058;17.220;2023-05-17T17:27:04;102284.90;;;10.81;75.46
54022;BME280;39936;51.058;17.220;2023-05-17T17:30:43;102286.09;;;10.80;76.22
54022;BME280;39936;51.058;17.220;2023-05-17T17:34:24;102297.52;;;10.76;76.44
54022;BME280;39936;51.058;17.220;2023-05-17T17:37:40;102297.15;;;10.80;76.89
54022;BME280;39936;51.058;17.220;2023-05-17T17:41:13;102297.67;;;10.78;76.92
54022;BME280;39936;51.058;17.220;2023-05-17T17:44:36;102289.89;;;10.76;76.96
54022;BME280;39936;51.058;17.220;2023-05-17T17:48:13;102301.54;;;10.79;76.68
54022;BME280;39936;51.058;17.220;2023-05-17T17:52:01;102304.00;;;10.75;76.78
54022;BME280;39936;51.058;17.220;2023-05-17T17:55:48;102310.33;;;10.78;77.55
54022;BME280;39936;51.058;17.220;2023-05-17T17:59:24;102317.55;;;10.84;78.03
54022;BME280;39936;51.058;17.220;2023-05-17T18:03:17;102322.21;;;10.82;78.44
54022;BME280;39936;51.058;17.220;2023-05-17T18:07:24;102324.25;;;10.79;80.18
54022;BME280;39936;51.058;17.220;2023-05-17T18:11:11;102322.52;;;10.68;81.04
54022;BME280;39936;51.058;17.220;2023-05-17T18:14:45;102328.06;;;10.54;81.49
54022;BME280;39936;51.058;17.220;2023-05-17T18:18:20;102341.99;;;10.39;81.03
54022;BME280;39936;51.058;17.220;2023-05-17T18:22:08;102340.61;;;10.28;81.00
54022;BME280;39936;51.058;17.220;2023-05-17T18:25:47;102344.95;;;10.18;80.64
54022;BME280;39936;51.058;17.220;2023-05-17T18:29:40;102349.15;;;10.09;80.66
54022;BME280;39936;51.058;17.220;2023-05-17T18:33:02;102365.65;;;10.08;80.47
54022;BME280;39936;51.058;17.220;2023-05-17T18:36:49;102371.83;;;10.05;80.25
54022;BME280;39936;51.058;17.220;2023-05-17T18:41:20;102373.76;;;10.02;80.05
54022;BME280;39936;51.058;17.220;2023-05-17T18:45:40;102348.38;;;9.86;80.78
54022;BME280;39936;51.058;17.220;2023-05-17T18:48:53;102386.48;;;10.07;82.43
54022;BME280;39936;51.058;17.220;2023-05-17T18:52:27;102399.44;;;10.03;83.37
54022;BME280;39936;51.058;17.220;2023-05-17T18:56:30;102412.56;;;10.01;83.76
54022;BME280;39936;51.058;17.220;2023-05-17T19:00:53;102416.52;;;10.02;84.28
54022;BME280;39936;51.058;17.220;2023-05-17T19:04:21;102411.61;;;10.01;84.89
54022;BME280;39936;51.058;17.220;2023-05-17T19:08:05;102412.07;;;9.98;84.47
54022;BME280;39936;51.058;17.220;2023-05-17T19:12:10;102411.57;;;9.92;84.89
54022;BME280;39936;51.058;17.220;2023-05-17T19:16:16;102383.12;;;9.66;87.61
54022;BME280;39936;51.058;17.220;2023-05-17T19:19:55;102405.01;;;9.60;90.31
54022;BME280;39936;51.058;17.220;2023-05-17T19:23:41;102411.06;;;9.40;92.24
54022;BME280;39936;51.058;17.220;2023-05-17T19:27:32;102416.84;;;9.27;93.78
54022;BME280;39936;51.058;17.220;2023-05-17T19:31:08;102421.38;;;9.11;95.12
54022;BME280;39936;51.058;17.220;2023-05-17T19:34:52;102401.30;;;8.90;96.51
54022;BME280;39936;51.058;17.220;2023-05-17T19:38:47;102418.69;;;8.92;97.13
54022;BME280;39936;51.058;17.220;2023-05-17T19:42:07;102420.55;;;8.85;94.85
54022;BME280;39936;51.058;17.220;2023-05-17T19:49:37;102420.02;;;9.03;91.87
54022;BME280;39936;51.058;17.220;2023-05-17T19:57:09;102413.71;;;9.18;92.28
54022;BME280;39936;51.058;17.220;2023-05-17T20:01:10;102415.82;;;9.21;92.88
54022;BME280;39936;51.058;17.220;2023-05-17T20:04:56;102415.72;;;9.16;91.69
54022;BME280;39936;51.058;17.220;2023-05-17T20:09:04;102412.63;;;9.13;91.92
54022;BME280;39936;51.058;17.220;2023-05-17T20:12:44;102410.88;;;9.05;90.71
54022;BME280;39936;51.058;17.220;2023-05-17T20:16:35;102407.86;;;8.96;88.22
54022;BME280;39936;51.058;17.220;2023-05-17T20:20:25;102408.55;;;8.96;87.56
54022;BME280;39936;51.058;17.220;2023-05-17T20:23:58;102410.09;;;8.94;87.02
54022;BME280;39936;51.058;17.220;2023-05-17T20:28:26;102419.05;;;8.95;87.23
54022;BME280;39936;51.058;17.220;2023-05-17T20:32:08;102421.52;;;8.96;88.03
54022;BME280;39936;51.058;17.220;2023-05-17T20:35:28;102420.61;;;8.94;89.50
54022;BME280;39936;51.058;17.220;2023-05-17T20:39:12;102422.09;;;8.88;90.46
54022;BME280;39936;51.058;17.220;2023-05-17T20:43:08;102429.56;;;8.82;90.76
54022;BME280;39936;51.058;17.220;2023-05-17T20:46:27;102433.92;;;8.74;90.24
54022;BME280;39936;51.058;17.220;2023-05-17T20:50:40;102449.20;;;8.74;89.66
54022;BME280;39936;51.058;17.220;2023-05-17T20:54:20;102452.55;;;8.75;89.53
54022;BME280;39936;51.058;17.220;2023-05-17T20:58:37;102456.53;;;8.75;88.72
54022;BME280;39936;51.058;17.220;2023-05-17T21:02:50;102459.20;;;8.78;87.69
54022;BME280;39936;51.058;17.220;2023-05-17T21:06:36;102463.55;;;8.80;87.34
54022;BME280;39936;51.058;17.220;2023-05-17T21:14:11;102461.57;;;8.77;88.55